الصفحة الرئيسية
METAR-TAF:

METAR-TAF

مطار :

مطار زامبوانجا الدولي

Zamboanga, الفلبين

دائرة عرض: 06-54N, خط طول: 122-04E, ارتفاع: 5 متر

مراقبة الطقس الحالي

تاريخ ووقت الإصدار 2ساعات و 10 دقيقة قبل الساعة 22:00UTC
ريح 1 عقدةمن اتجاهات متغيرة
درجة الحرارة 26°درجة مئوية
الرطوبة 89%
ضغط 1009 hPa
الرؤية 10 كم أو أكثر
غيوم قليلة على ارتفاع 1700 قدم
غيوم مفككة على ارتفاع 9000 قدم
ملبد بالغيوم على ارتفاع 30000 قدم

METAR: RPMZ 282200Z VRB01KT 9999 FEW017 BKN090 OVC300 26/24 Q1009 RESHRA RMK A2980

زمن: 08:10 (00:10 UTC)

توقعات

تاريخ ووقت الإصدار 1ساعة و 10 دقيقة قبل الساعة 23:00UTC
التوقعات صالحة من29 الساعة 00 UTC إلى 29 الساعة 24 UTC
ريح 6 عقدة من الغرب/الجنوب الغربي
الرؤية 10 كم أو أكثر
غيوم قليلة على ارتفاع 1700 قدم
غيوم مفككة على ارتفاع 30000 قدم
مؤقت
من 29 الساعة 00 UTC إلى 29 الساعة 06 UTC
ريح 10 عقدة من الشرق/الشمال الشرقي
غيوم قليلة على ارتفاع 1600 قدم, مزنة ركامية.
غيوم متفرقة على ارتفاع 1700 قدم
غيوم مفككة على ارتفاع 9000 قدم

TAF: RPMZ 282300Z 2900/2924 25006KT 9999 FEW017 BKN300 TEMPO 2900/2906 07010KT FEW016CB SCT017 BKN090

أرصاد الطقس والتوقعات من أكثر من 4000 مطار (تقارير الطقس للمطار METAR والتنبؤ بالطقس بالمطارTAF).

المحطات المتاحة هي النقط الصفراء والحمراء على الخريطة.

حرك المؤشر فوق النقطة لمعرفة اسم المحطة.

ثم انقر لمعرفة أرصاد وتوقعات الطقس.

لتغيير الخارطة: اضغط على الأزرار الخضراء مع رمز الصليب الأسود للتكبير. على الزر الأخضر مع شرطة للتصغير، أو على الأسهم الخضراء للخرائط المجاورة.


METAR-TAF: